AAL407 KBOS-KPHL
Flight info
| Callsign | AAL407 |
|---|---|
| Flight time | N/A |
| Altitude | 36000 |
| Route | SSOXS7 SSOXS Q167 RIFLE Q439 BRIGS JIIMS4 |
| Aircraft | A20N/M-SDE2E3FGHIRWXY/LB1 |
Departure
| Time | 2026-05-07 05:09 |
|---|---|
| Airport | Boston Logan International Airport (KBOS) |
Arrival
| Time | N/A |
|---|---|
| Airport | Philadelphia International Airport (KPHL) |
| Time | Latitude | Longitude | Altitude | Speed | Heading |
|---|---|---|---|---|---|
| 2026-05-07 04:58 | 42.36866 | -71.01508 | 29 ft | 0 kts | 228° |
| 2026-05-07 05:02 | 42.36868 | -71.01504 | 29 ft | 2 kts | 228° |
| 2026-05-07 05:02 | 42.36879 | -71.01488 | 30 ft | 2 kts | 228° |
| 2026-05-07 05:02 | 42.36890 | -71.01473 | 30 ft | 2 kts | 195° |
| 2026-05-07 05:02 | 42.36904 | -71.01474 | 30 ft | 0 kts | 136° |
| 2026-05-07 05:04 | 42.36874 | -71.01437 | 30 ft | 10 kts | 136° |
| 2026-05-07 05:04 | 42.36851 | -71.01363 | 29 ft | 8 kts | 108° |
| 2026-05-07 05:04 | 42.36842 | -71.01289 | 28 ft | 7 kts | 77° |
| 2026-05-07 05:05 | 42.36880 | -71.01232 | 27 ft | 18 kts | 41° |
| 2026-05-07 05:05 | 42.37008 | -71.01096 | 27 ft | 23 kts | 27° |
| 2026-05-07 05:05 | 42.37156 | -71.01000 | 27 ft | 23 kts | 25° |
| 2026-05-07 05:05 | 42.37303 | -71.00910 | 25 ft | 23 kts | 22° |
| 2026-05-07 05:06 | 42.37447 | -71.00839 | 26 ft | 21 kts | 15° |
| 2026-05-07 05:06 | 42.37601 | -71.00757 | 28 ft | 25 kts | 19° |
| 2026-05-07 05:06 | 42.37760 | -71.00683 | 33 ft | 23 kts | 19° |
| 2026-05-07 05:06 | 42.37832 | -71.00557 | 31 ft | 18 kts | 104° |
| 2026-05-07 05:07 | 42.37785 | -71.00383 | 24 ft | 21 kts | 111° |
| 2026-05-07 05:07 | 42.37674 | -71.00287 | 27 ft | 20 kts | 169° |
| 2026-05-07 05:07 | 42.37535 | -71.00249 | 27 ft | 21 kts | 169° |
| 2026-05-07 05:07 | 42.37402 | -71.00213 | 31 ft | 18 kts | 162° |
| 2026-05-07 05:08 | 42.37263 | -71.00181 | 30 ft | 22 kts | 177° |
| 2026-05-07 05:08 | 42.37111 | -71.00212 | 31 ft | 25 kts | 199° |
| 2026-05-07 05:08 | 42.36661 | -71.00441 | 29 ft | 116 kts | 200° |
| 2026-05-07 05:08 | 42.35639 | -71.00901 | 266 ft | 178 kts | 200° |
| 2026-05-07 05:09 | 42.34372 | -71.01346 | 948 ft | 202 kts | 187° |
| 2026-05-07 05:09 | 42.32910 | -71.00800 | 1584 ft | 243 kts | 147° |
| 2026-05-07 05:09 | 42.31651 | -70.99049 | 2275 ft | 276 kts | 131° |
| 2026-05-07 05:09 | 42.30756 | -70.96629 | 2906 ft | 304 kts | 104° |
| 2026-05-07 05:10 | 42.30774 | -70.93950 | 3353 ft | 269 kts | 80° |
| 2026-05-07 05:10 | 42.31176 | -70.91555 | 3957 ft | 260 kts | 76° |
| 2026-05-07 05:10 | 42.31636 | -70.89164 | 4602 ft | 265 kts | 76° |
| 2026-05-07 05:10 | 42.32109 | -70.86729 | 5204 ft | 271 kts | 77° |
| 2026-05-07 05:11 | 42.32584 | -70.84234 | 5833 ft | 277 kts | 77° |
| 2026-05-07 05:11 | 42.33038 | -70.81670 | 6454 ft | 289 kts | 84° |
| 2026-05-07 05:11 | 42.32903 | -70.78925 | 7078 ft | 298 kts | 112° |
| 2026-05-07 05:11 | 42.32138 | -70.76302 | 7703 ft | 303 kts | 121° |
| 2026-05-07 05:12 | 42.31233 | -70.73711 | 8333 ft | 307 kts | 122° |
| 2026-05-07 05:12 | 42.30301 | -70.71093 | 8973 ft | 310 kts | 124° |
| 2026-05-07 05:12 | 42.29072 | -70.68779 | 9616 ft | 297 kts | 147° |
| 2026-05-07 05:12 | 42.27337 | -70.67416 | 10230 ft | 290 kts | 167° |
| 2026-05-07 05:13 | 42.25372 | -70.66473 | 10855 ft | 310 kts | 171° |
| 2026-05-07 05:13 | 42.23250 | -70.65545 | 11491 ft | 332 kts | 171° |
| 2026-05-07 05:13 | 42.20987 | -70.64548 | 12141 ft | 351 kts | 170° |
| 2026-05-07 05:13 | 42.18629 | -70.63486 | 12803 ft | 362 kts | 170° |
| 2026-05-07 05:14 | 42.16223 | -70.62387 | 13444 ft | 366 kts | 170° |
| 2026-05-07 05:14 | 42.13770 | -70.61713 | 14042 ft | 354 kts | 187° |
| 2026-05-07 05:14 | 42.11394 | -70.62243 | 14644 ft | 343 kts | 202° |
| 2026-05-07 05:14 | 42.09132 | -70.63247 | 15257 ft | 343 kts | 205° |
| 2026-05-07 05:15 | 42.06899 | -70.64300 | 15860 ft | 345 kts | 205° |
| 2026-05-07 05:15 | 42.04625 | -70.65355 | 16493 ft | 347 kts | 205° |
| 2026-05-07 05:15 | 42.02331 | -70.66398 | 17137 ft | 349 kts | 204° |
| 2026-05-07 05:15 | 42.00017 | -70.67434 | 17793 ft | 352 kts | 204° |
| 2026-05-07 05:16 | 41.97688 | -70.68468 | 18414 ft | 354 kts | 204° |
| 2026-05-07 05:16 | 41.95332 | -70.69509 | 18971 ft | 359 kts | 205° |
| 2026-05-07 05:16 | 41.92929 | -70.70570 | 19581 ft | 368 kts | 206° |
| 2026-05-07 05:16 | 41.90471 | -70.71653 | 20187 ft | 376 kts | 206° |
| 2026-05-07 05:17 | 41.87954 | -70.72762 | 20699 ft | 386 kts | 206° |
| 2026-05-07 05:17 | 41.85394 | -70.73974 | 21214 ft | 390 kts | 211° |
| 2026-05-07 05:17 | 41.83100 | -70.75831 | 21710 ft | 383 kts | 226° |
| 2026-05-07 05:17 | 41.81223 | -70.78347 | 22251 ft | 381 kts | 234° |
| 2026-05-07 05:18 | 41.79396 | -70.80937 | 22728 ft | 386 kts | 231° |
| 2026-05-07 05:18 | 41.77448 | -70.83435 | 23279 ft | 388 kts | 231° |
| 2026-05-07 05:18 | 41.75465 | -70.85908 | 23753 ft | 391 kts | 230° |
| 2026-05-07 05:18 | 41.73458 | -70.88368 | 24253 ft | 392 kts | 230° |
| 2026-05-07 05:19 | 41.71435 | -70.90821 | 24724 ft | 392 kts | 230° |
| 2026-05-07 05:19 | 41.69408 | -70.93266 | 25185 ft | 392 kts | 230° |
| 2026-05-07 05:19 | 41.67381 | -70.95712 | 25673 ft | 393 kts | 230° |
| 2026-05-07 05:19 | 41.65351 | -70.98162 | 26162 ft | 394 kts | 230° |
| 2026-05-07 05:20 | 41.63315 | -71.00623 | 26678 ft | 395 kts | 230° |
| 2026-05-07 05:20 | 41.61325 | -71.03132 | 27176 ft | 390 kts | 233° |
| 2026-05-07 05:20 | 41.59545 | -71.05761 | 27695 ft | 384 kts | 236° |
| 2026-05-07 05:20 | 41.57824 | -71.08465 | 28202 ft | 380 kts | 237° |
| 2026-05-07 05:21 | 41.56156 | -71.11181 | 28750 ft | 377 kts | 238° |
| 2026-05-07 05:21 | 41.52909 | -71.16589 | 29864 ft | 370 kts | 238° |
| 2026-05-07 05:21 | 41.51310 | -71.19262 | 30343 ft | 367 kts | 238° |
| 2026-05-07 05:22 | 41.49721 | -71.21912 | 30822 ft | 365 kts | 239° |
| 2026-05-07 05:22 | 41.48134 | -71.24549 | 31318 ft | 364 kts | 239° |
| 2026-05-07 05:22 | 41.46549 | -71.27176 | 31741 ft | 363 kts | 239° |
| 2026-05-07 05:22 | 41.44964 | -71.29796 | 32246 ft | 363 kts | 239° |
| 2026-05-07 05:23 | 41.43381 | -71.32409 | 32766 ft | 362 kts | 239° |
| 2026-05-07 05:23 | 41.41800 | -71.35012 | 33277 ft | 361 kts | 239° |
| 2026-05-07 05:23 | 41.40221 | -71.37609 | 33822 ft | 360 kts | 240° |
| 2026-05-07 05:23 | 41.38648 | -71.40193 | 34288 ft | 358 kts | 240° |
| 2026-05-07 05:24 | 41.37083 | -71.42762 | 34761 ft | 356 kts | 240° |
| 2026-05-07 05:24 | 41.35527 | -71.45312 | 35241 ft | 353 kts | 240° |
| 2026-05-07 05:24 | 41.33982 | -71.47844 | 35673 ft | 352 kts | 240° |
| 2026-05-07 05:24 | 41.32434 | -71.50384 | 35909 ft | 355 kts | 241° |
| 2026-05-07 05:25 | 41.30879 | -71.52934 | 35865 ft | 354 kts | 241° |
| 2026-05-07 05:25 | 41.27771 | -71.58024 | 35859 ft | 354 kts | 241° |
| 2026-05-07 05:26 | 41.24673 | -71.63078 | 35850 ft | 352 kts | 241° |
| 2026-05-07 05:26 | 41.21584 | -71.68113 | 35851 ft | 352 kts | 241° |
| 2026-05-07 05:27 | 41.18494 | -71.73144 | 35851 ft | 352 kts | 241° |
| 2026-05-07 05:27 | 41.15399 | -71.78173 | 35857 ft | 352 kts | 241° |
| 2026-05-07 05:28 | 41.12301 | -71.83200 | 35858 ft | 353 kts | 241° |
| 2026-05-07 05:28 | 41.09192 | -71.88235 | 35862 ft | 353 kts | 241° |
| 2026-05-07 05:29 | 41.06080 | -71.93266 | 35866 ft | 352 kts | 240° |
| 2026-05-07 05:29 | 41.02983 | -71.98262 | 35860 ft | 350 kts | 241° |
| 2026-05-07 05:30 | 41.00338 | -72.03540 | 35859 ft | 339 kts | 250° |
| 2026-05-07 05:30 | 40.98384 | -72.09133 | 35848 ft | 336 kts | 253° |
| 2026-05-07 05:31 | 40.96615 | -72.14852 | 35858 ft | 336 kts | 253° |
| 2026-05-07 05:31 | 40.94863 | -72.20581 | 35832 ft | 336 kts | 253° |
| 2026-05-07 05:32 | 40.93086 | -72.26301 | 35860 ft | 336 kts | 253° |
| 2026-05-07 05:32 | 40.91242 | -72.31960 | 35830 ft | 336 kts | 250° |
| 2026-05-07 05:33 | 40.88690 | -72.37233 | 35833 ft | 347 kts | 240° |
| 2026-05-07 05:33 | 40.85261 | -72.41871 | 35843 ft | 357 kts | 234° |
| 2026-05-07 05:34 | 40.81521 | -72.46240 | 35848 ft | 359 kts | 233° |
| 2026-05-07 05:34 | 40.77817 | -72.50666 | 35857 ft | 359 kts | 234° |
| 2026-05-07 05:35 | 40.74136 | -72.55106 | 35845 ft | 359 kts | 234° |
| 2026-05-07 05:35 | 40.70440 | -72.59538 | 35858 ft | 359 kts | 234° |
| 2026-05-07 05:36 | 40.66742 | -72.63946 | 35854 ft | 357 kts | 234° |
| 2026-05-07 05:36 | 40.63052 | -72.68334 | 35856 ft | 358 kts | 234° |
| 2026-05-07 05:37 | 40.59350 | -72.72733 | 35852 ft | 359 kts | 234° |
| 2026-05-07 05:37 | 40.55645 | -72.77128 | 35849 ft | 359 kts | 234° |
| 2026-05-07 05:38 | 40.51939 | -72.81515 | 35851 ft | 359 kts | 234° |
| 2026-05-07 05:38 | 40.48231 | -72.85900 | 35808 ft | 359 kts | 234° |
| 2026-05-07 05:39 | 40.44519 | -72.90306 | 35855 ft | 361 kts | 234° |
| 2026-05-07 05:39 | 40.40824 | -72.94704 | 35857 ft | 361 kts | 234° |
| 2026-05-07 05:40 | 40.37106 | -72.99117 | 35855 ft | 360 kts | 234° |
| 2026-05-07 05:40 | 40.33392 | -73.03517 | 35857 ft | 360 kts | 234° |
| 2026-05-07 05:41 | 40.29679 | -73.07910 | 35825 ft | 360 kts | 234° |
| 2026-05-07 05:41 | 40.25950 | -73.12319 | 35852 ft | 362 kts | 234° |
| 2026-05-07 05:42 | 40.22214 | -73.16726 | 35864 ft | 362 kts | 234° |
| 2026-05-07 05:42 | 40.18466 | -73.21137 | 35860 ft | 362 kts | 234° |
| 2026-05-07 05:43 | 40.14721 | -73.25540 | 35866 ft | 362 kts | 234° |
| 2026-05-07 05:43 | 40.10975 | -73.29938 | 35856 ft | 363 kts | 234° |
| 2026-05-07 05:44 | 40.07429 | -73.34533 | 35866 ft | 355 kts | 238° |
| 2026-05-07 05:44 | 40.04115 | -73.39309 | 35870 ft | 354 kts | 239° |
| 2026-05-07 05:45 | 40.00823 | -73.44095 | 35869 ft | 354 kts | 239° |
| 2026-05-07 05:45 | 39.97532 | -73.48881 | 35871 ft | 354 kts | 239° |
| 2026-05-07 05:46 | 39.94241 | -73.53660 | 35839 ft | 354 kts | 239° |
| 2026-05-07 05:46 | 39.90930 | -73.58468 | 35874 ft | 358 kts | 238° |
| 2026-05-07 05:47 | 39.87620 | -73.63260 | 35872 ft | 358 kts | 238° |
| 2026-05-07 05:47 | 39.84288 | -73.68073 | 35876 ft | 356 kts | 238° |
| 2026-05-07 05:48 | 39.80982 | -73.72843 | 35872 ft | 354 kts | 239° |
| 2026-05-07 05:48 | 39.77687 | -73.77596 | 35871 ft | 354 kts | 238° |
| 2026-05-07 05:49 | 39.74383 | -73.82355 | 35870 ft | 356 kts | 238° |
| 2026-05-07 05:49 | 39.71611 | -73.86341 | 35873 ft | 358 kts | 238° |
| 2026-05-07 05:50 | 39.68265 | -73.91142 | 35877 ft | 359 kts | 238° |
| 2026-05-07 05:50 | 39.64914 | -73.95942 | 35876 ft | 359 kts | 238° |
| 2026-05-07 05:51 | 39.61564 | -74.00734 | 35900 ft | 359 kts | 238° |
| 2026-05-07 05:51 | 39.58217 | -74.05514 | 35876 ft | 357 kts | 238° |
| 2026-05-07 05:52 | 39.54884 | -74.10278 | 35874 ft | 355 kts | 239° |
| 2026-05-07 05:52 | 39.53459 | -74.12828 | 35872 ft | 343 kts | 249° |
| 2026-05-07 05:52 | 39.52629 | -74.15660 | 35875 ft | 334 kts | 261° |
| 2026-05-07 05:53 | 39.52387 | -74.21611 | 35871 ft | 332 kts | 271° |
| 2026-05-07 05:53 | 39.52578 | -74.27590 | 35870 ft | 332 kts | 271° |
| 2026-05-07 05:54 | 39.52725 | -74.33575 | 35869 ft | 332 kts | 271° |
| 2026-05-07 05:54 | 39.52845 | -74.39549 | 35871 ft | 330 kts | 270° |
| 2026-05-07 05:55 | 39.52954 | -74.45483 | 35872 ft | 329 kts | 270° |
| 2026-05-07 05:55 | 39.53057 | -74.51410 | 35869 ft | 329 kts | 270° |
| 2026-05-07 05:56 | 39.53157 | -74.57330 | 35869 ft | 329 kts | 270° |
| 2026-05-07 05:56 | 39.53254 | -74.63252 | 35869 ft | 329 kts | 270° |
| 2026-05-07 05:57 | 39.53348 | -74.69175 | 35869 ft | 329 kts | 270° |
| 2026-05-07 05:57 | 39.53439 | -74.75089 | 35869 ft | 329 kts | 270° |
| 2026-05-07 05:58 | 39.53533 | -74.81010 | 35871 ft | 329 kts | 270° |
| 2026-05-07 05:58 | 39.53625 | -74.86926 | 35870 ft | 329 kts | 270° |
| 2026-05-07 05:59 | 39.53742 | -74.92845 | 35870 ft | 329 kts | 273° |
| 2026-05-07 05:59 | 39.54247 | -74.95702 | 35869 ft | 336 kts | 286° |
| 2026-05-07 05:59 | 39.55567 | -74.98284 | 35870 ft | 357 kts | 302° |
| 2026-05-07 05:59 | 39.57521 | -75.00397 | 35875 ft | 372 kts | 310° |
| 2026-05-07 06:00 | 39.59641 | -75.02344 | 35879 ft | 375 kts | 310° |
| 2026-05-07 06:00 | 39.63921 | -75.06225 | 35902 ft | 375 kts | 310° |
| 2026-05-07 06:00 | 39.66093 | -75.08123 | 35898 ft | 387 kts | 316° |
| 2026-05-07 06:01 | 39.68744 | -75.09337 | 35909 ft | 424 kts | 333° |
| 2026-05-07 06:01 | 39.71820 | -75.09501 | 35911 ft | 464 kts | 349° |
| 2026-05-07 06:01 | 39.75081 | -75.08501 | 35918 ft | 501 kts | 5° |
| 2026-05-07 06:01 | 39.78264 | -75.06318 | 35915 ft | 535 kts | 22° |
| 2026-05-07 06:02 | 39.81114 | -75.03024 | 35911 ft | 561 kts | 38° |
| 2026-05-07 06:02 | 39.83394 | -74.98805 | 35898 ft | 581 kts | 53° |
| 2026-05-07 06:02 | 39.85150 | -74.94035 | 35897 ft | 591 kts | 65° |
| 2026-05-07 06:02 | 39.86117 | -74.88809 | 35909 ft | 598 kts | 80° |
| 2026-05-07 06:03 | 39.86616 | -74.83427 | 35907 ft | 599 kts | 81° |
| 2026-05-07 06:03 | 39.88032 | -74.72758 | 35903 ft | 598 kts | 75° |
| 2026-05-07 06:04 | 39.89973 | -74.62228 | 35897 ft | 600 kts | 72° |
| 2026-05-07 06:04 | 39.92084 | -74.51692 | 35893 ft | 603 kts | 71° |
| 2026-05-07 06:05 | 39.94228 | -74.41128 | 35889 ft | 603 kts | 71° |
| 2026-05-07 06:05 | 39.96367 | -74.30565 | 35886 ft | 601 kts | 71° |
| 2026-05-07 06:06 | 39.98487 | -74.20048 | 35896 ft | 599 kts | 72° |
| 2026-05-07 06:06 | 40.00595 | -74.09544 | 35878 ft | 599 kts | 72° |
| 2026-05-07 06:07 | 40.02694 | -73.99024 | 35858 ft | 600 kts | 72° |
| 2026-05-07 06:07 | 40.04785 | -73.88494 | 35865 ft | 599 kts | 72° |
| 2026-05-07 06:08 | 40.06864 | -73.77969 | 35869 ft | 598 kts | 72° |
| 2026-05-07 06:08 | 40.08932 | -73.67446 | 35866 ft | 598 kts | 72° |
| 2026-05-07 06:09 | 40.10988 | -73.56928 | 35863 ft | 596 kts | 72° |
| 2026-05-07 06:09 | 40.13025 | -73.46451 | 35862 ft | 594 kts | 72° |
| 2026-05-07 06:10 | 40.15050 | -73.35987 | 35861 ft | 595 kts | 72° |
| 2026-05-07 06:10 | 40.17061 | -73.25537 | 35850 ft | 597 kts | 72° |
| 2026-05-07 06:11 | 40.19071 | -73.15032 | 35857 ft | 595 kts | 72° |
| 2026-05-07 06:11 | 40.21070 | -73.04536 | 35850 ft | 595 kts | 72° |
| 2026-05-07 06:12 | 40.23059 | -72.94031 | 35832 ft | 595 kts | 73° |
| 2026-05-07 06:12 | 40.25036 | -72.83534 | 35845 ft | 593 kts | 73° |
| 2026-05-07 06:13 | 40.27000 | -72.73057 | 35859 ft | 593 kts | 73° |
| 2026-05-07 06:13 | 40.28959 | -72.62545 | 35846 ft | 595 kts | 73° |
| 2026-05-07 06:14 | 40.30910 | -72.52015 | 35851 ft | 594 kts | 73° |
| 2026-05-07 06:14 | 40.32850 | -72.41489 | 35853 ft | 594 kts | 73° |
| 2026-05-07 06:15 | 40.34780 | -72.30963 | 35857 ft | 594 kts | 73° |
| 2026-05-07 06:15 | 40.36701 | -72.20422 | 35858 ft | 594 kts | 73° |
| 2026-05-07 06:16 | 40.38609 | -72.09899 | 35867 ft | 593 kts | 73° |
| 2026-05-07 06:16 | 40.40509 | -71.99360 | 35860 ft | 594 kts | 73° |
| 2026-05-07 06:17 | 40.42401 | -71.88804 | 35841 ft | 594 kts | 73° |
| 2026-05-07 06:17 | 40.44279 | -71.78268 | 35861 ft | 592 kts | 73° |
| 2026-05-07 06:18 | 40.46144 | -71.67748 | 35865 ft | 592 kts | 73° |
| 2026-05-07 06:18 | 40.47998 | -71.57227 | 35863 ft | 591 kts | 73° |
| 2026-05-07 06:19 | 40.49841 | -71.46712 | 35866 ft | 589 kts | 73° |
| 2026-05-07 06:19 | 40.51669 | -71.36218 | 35862 ft | 589 kts | 73° |
| 2026-05-07 06:20 | 40.53488 | -71.25717 | 35857 ft | 589 kts | 73° |
| 2026-05-07 06:20 | 40.55298 | -71.15213 | 35865 ft | 589 kts | 74° |
| 2026-05-07 06:21 | 40.57098 | -71.04698 | 35861 ft | 589 kts | 74° |
| 2026-05-07 06:21 | 40.58877 | -70.94251 | 35860 ft | 589 kts | 74° |
| 2026-05-07 06:22 | 40.60659 | -70.83723 | 35855 ft | 590 kts | 74° |
| 2026-05-07 06:22 | 40.63311 | -70.67938 | 35864 ft | 588 kts | 74° |
| 2026-05-07 06:23 | 40.65065 | -70.57417 | 35868 ft | 588 kts | 74° |
| 2026-05-07 06:23 | 40.66810 | -70.46893 | 35869 ft | 588 kts | 74° |
| 2026-05-07 06:24 | 40.68541 | -70.36384 | 35871 ft | 587 kts | 74° |
| 2026-05-07 06:24 | 40.70264 | -70.25868 | 35884 ft | 587 kts | 75° |
| 2026-05-07 06:25 | 40.71980 | -70.15324 | 35867 ft | 588 kts | 74° |
| 2026-05-07 06:25 | 40.73680 | -70.04817 | 35879 ft | 586 kts | 74° |
| 2026-05-07 06:26 | 40.75369 | -69.94312 | 35876 ft | 586 kts | 74° |
| 2026-05-07 06:26 | 40.77049 | -69.83801 | 35848 ft | 585 kts | 74° |
| 2026-05-07 06:27 | 40.78712 | -69.73328 | 35884 ft | 582 kts | 74° |
| 2026-05-07 06:27 | 40.80363 | -69.62874 | 35885 ft | 583 kts | 75° |
| 2026-05-07 06:28 | 40.81997 | -69.52461 | 35844 ft | 583 kts | 75° |
| 2026-05-07 06:28 | 40.83625 | -69.42008 | 35886 ft | 579 kts | 75° |
| 2026-05-07 06:29 | 40.85238 | -69.31600 | 35888 ft | 578 kts | 75° |
| 2026-05-07 06:29 | 40.86840 | -69.21193 | 35894 ft | 578 kts | 75° |
| 2026-05-07 06:30 | 40.88432 | -69.10790 | 35893 ft | 576 kts | 75° |
| 2026-05-07 06:30 | 40.90006 | -69.00432 | 35900 ft | 575 kts | 75° |
| 2026-05-07 06:31 | 40.91571 | -68.90072 | 35894 ft | 575 kts | 75° |
| 2026-05-07 06:31 | 40.93125 | -68.79716 | 35899 ft | 573 kts | 75° |
| 2026-05-07 06:32 | 40.94666 | -68.69383 | 35903 ft | 572 kts | 75° |
| 2026-05-07 06:32 | 40.96196 | -68.59059 | 35903 ft | 572 kts | 76° |
| 2026-05-07 06:33 | 40.97716 | -68.48730 | 35904 ft | 572 kts | 76° |
| 2026-05-07 06:33 | 40.99226 | -68.38402 | 35901 ft | 571 kts | 76° |
| 2026-05-07 06:34 | 41.00726 | -68.28078 | 35905 ft | 571 kts | 76° |
| 2026-05-07 06:34 | 41.02216 | -68.17753 | 35894 ft | 571 kts | 76° |
| 2026-05-07 06:35 | 41.03694 | -68.07440 | 35908 ft | 569 kts | 76° |
| 2026-05-07 06:35 | 41.05169 | -67.97152 | 35903 ft | 568 kts | 75° |
| 2026-05-07 06:36 | 41.06673 | -67.86873 | 35917 ft | 568 kts | 75° |
| 2026-05-07 06:36 | 41.07947 | -67.78330 | 35911 ft | 569 kts | 75° |
| 2026-05-07 06:37 | 41.09511 | -67.68049 | 35911 ft | 569 kts | 75° |
| 2026-05-07 06:37 | 41.11366 | -67.56111 | 35910 ft | 569 kts | 74° |
| 2026-05-07 06:38 | 41.12727 | -67.47526 | 35917 ft | 566 kts | 74° |
| 2026-05-07 06:38 | 41.14369 | -67.37333 | 35919 ft | 565 kts | 73° |
| 2026-05-07 06:39 | 41.16031 | -67.27212 | 35924 ft | 565 kts | 73° |
| 2026-05-07 06:39 | 41.17735 | -67.17034 | 35912 ft | 564 kts | 73° |
| 2026-05-07 06:40 | 41.19461 | -67.06896 | 35923 ft | 562 kts | 73° |
| 2026-05-07 06:40 | 41.21212 | -66.96795 | 35927 ft | 561 kts | 72° |
| 2026-05-07 06:41 | 41.22994 | -66.86702 | 35921 ft | 561 kts | 72° |
| 2026-05-07 06:41 | 41.24797 | -66.76651 | 35936 ft | 559 kts | 72° |
| 2026-05-07 06:42 | 41.26629 | -66.66622 | 35933 ft | 558 kts | 72° |
| 2026-05-07 06:42 | 41.28491 | -66.56598 | 35922 ft | 558 kts | 71° |
| 2026-05-07 06:43 | 41.30377 | -66.46609 | 35947 ft | 555 kts | 71° |
| 2026-05-07 06:43 | 41.32284 | -66.36668 | 35949 ft | 555 kts | 71° |
| 2026-05-07 06:44 | 41.34224 | -66.26724 | 35949 ft | 556 kts | 71° |
| 2026-05-07 06:44 | 41.36194 | -66.16793 | 35953 ft | 554 kts | 70° |
| 2026-05-07 06:45 | 41.38187 | -66.06897 | 35954 ft | 553 kts | 70° |
| 2026-05-07 06:45 | 41.40208 | -65.97018 | 35960 ft | 553 kts | 70° |
| 2026-05-07 06:46 | 41.42259 | -65.87147 | 35988 ft | 552 kts | 69° |
| 2026-05-07 06:46 | 41.44321 | -65.77374 | 35964 ft | 552 kts | 69° |
| 2026-05-07 06:47 | 41.46430 | -65.67538 | 35972 ft | 552 kts | 69° |
| 2026-05-07 06:47 | 41.48569 | -65.57710 | 35965 ft | 551 kts | 68° |
| 2026-05-07 06:48 | 41.50728 | -65.47926 | 35983 ft | 549 kts | 68° |
| 2026-05-07 06:48 | 41.52910 | -65.38178 | 35982 ft | 549 kts | 68° |
| 2026-05-07 06:49 | 41.55127 | -65.28419 | 35973 ft | 549 kts | 68° |
| 2026-05-07 06:49 | 41.57365 | -65.18702 | 35991 ft | 547 kts | 67° |
| 2026-05-07 06:50 | 41.59626 | -65.09014 | 35997 ft | 546 kts | 67° |
| 2026-05-07 06:50 | 41.61917 | -64.99337 | 36012 ft | 546 kts | 67° |
| 2026-05-07 06:51 | 41.64237 | -64.89672 | 35995 ft | 546 kts | 66° |
| 2026-05-07 06:51 | 41.66581 | -64.80032 | 35996 ft | 545 kts | 66° |
| 2026-05-07 06:52 | 41.68953 | -64.70403 | 36000 ft | 545 kts | 66° |
| 2026-05-07 06:52 | 41.71353 | -64.60794 | 36026 ft | 544 kts | 66° |
| 2026-05-07 06:53 | 41.73788 | -64.51174 | 36005 ft | 547 kts | 65° |
| 2026-05-07 06:53 | 41.76260 | -64.41545 | 36009 ft | 547 kts | 65° |
| 2026-05-07 06:54 | 41.78760 | -64.31930 | 36003 ft | 546 kts | 65° |
| 2026-05-07 06:54 | 41.81272 | -64.22373 | 36013 ft | 542 kts | 65° |
| 2026-05-07 06:55 | 41.83804 | -64.12852 | 36008 ft | 542 kts | 64° |
| 2026-05-07 06:55 | 41.86365 | -64.03342 | 36000 ft | 541 kts | 64° |
| 2026-05-07 06:56 | 41.88938 | -63.93890 | 36020 ft | 538 kts | 64° |
| 2026-05-07 06:56 | 41.91529 | -63.84477 | 36035 ft | 537 kts | 64° |
| 2026-05-07 06:57 | 41.94152 | -63.75062 | 36022 ft | 539 kts | 64° |
| 2026-05-07 06:57 | 41.96791 | -63.65710 | 36015 ft | 539 kts | 63° |
| 2026-05-07 06:58 | 41.99468 | -63.56327 | 36026 ft | 537 kts | 63° |
| 2026-05-07 06:58 | 42.02164 | -63.46980 | 36036 ft | 536 kts | 63° |
| 2026-05-07 06:59 | 42.04889 | -63.37641 | 36032 ft | 536 kts | 63° |
| 2026-05-07 06:59 | 42.07641 | -63.28317 | 36032 ft | 536 kts | 62° |
| 2026-05-07 07:00 | 42.10420 | -63.19008 | 36038 ft | 536 kts | 62° |
| 2026-05-07 07:00 | 42.13229 | -63.09709 | 36031 ft | 535 kts | 62° |
| 2026-05-07 07:01 | 42.16052 | -63.00462 | 36033 ft | 533 kts | 62° |
| 2026-05-07 07:01 | 42.18897 | -62.91240 | 36040 ft | 532 kts | 62° |
| 2026-05-07 07:02 | 42.21764 | -62.82044 | 36040 ft | 532 kts | 61° |
| 2026-05-07 07:02 | 42.24661 | -62.72859 | 36042 ft | 532 kts | 62° |
| 2026-05-07 07:03 | 42.27582 | -62.63691 | 36041 ft | 531 kts | 61° |
| 2026-05-07 07:03 | 42.30530 | -62.54540 | 36043 ft | 531 kts | 61° |
| 2026-05-07 07:04 | 42.33495 | -62.45425 | 36057 ft | 528 kts | 62° |
| 2026-05-07 07:04 | 42.36466 | -62.36377 | 36048 ft | 526 kts | 61° |
| 2026-05-07 07:05 | 42.39457 | -62.27361 | 36056 ft | 525 kts | 61° |
| 2026-05-07 07:05 | 42.42473 | -62.18358 | 36052 ft | 525 kts | 61° |
| 2026-05-07 07:06 | 42.45514 | -62.09373 | 36053 ft | 525 kts | 61° |
| 2026-05-07 07:06 | 42.48582 | -62.00406 | 36054 ft | 525 kts | 61° |
| 2026-05-07 07:07 | 42.51674 | -61.91454 | 36051 ft | 524 kts | 60° |
| 2026-05-07 07:07 | 42.54784 | -61.82531 | 36065 ft | 522 kts | 60° |
| 2026-05-07 07:08 | 42.57909 | -61.73654 | 36075 ft | 521 kts | 60° |
| 2026-05-07 07:08 | 42.61034 | -61.64859 | 36069 ft | 521 kts | 60° |
| 2026-05-07 07:09 | 42.64203 | -61.56023 | 36065 ft | 521 kts | 60° |
| 2026-05-07 07:09 | 42.67400 | -61.47195 | 36087 ft | 520 kts | 60° |
| 2026-05-07 07:10 | 42.70621 | -61.38391 | 36074 ft | 520 kts | 60° |
| 2026-05-07 07:10 | 42.73861 | -61.29615 | 36078 ft | 519 kts | 60° |
| 2026-05-07 07:11 | 42.77122 | -61.20859 | 36083 ft | 517 kts | 60° |
| 2026-05-07 07:11 | 42.80389 | -61.12165 | 36092 ft | 514 kts | 60° |
| 2026-05-07 07:12 | 42.83667 | -61.03515 | 36085 ft | 514 kts | 59° |
| 2026-05-07 07:12 | 42.86966 | -60.94886 | 36098 ft | 513 kts | 59° |
| 2026-05-07 07:13 | 42.90290 | -60.86269 | 36087 ft | 513 kts | 59° |
| 2026-05-07 07:13 | 42.93636 | -60.77671 | 36097 ft | 513 kts | 59° |
| 2026-05-07 07:14 | 42.97006 | -60.69084 | 36103 ft | 513 kts | 58° |
| 2026-05-07 07:14 | 43.00400 | -60.60513 | 36094 ft | 513 kts | 58° |
| 2026-05-07 07:15 | 43.03816 | -60.51960 | 36101 ft | 512 kts | 59° |
| 2026-05-07 07:15 | 43.07240 | -60.43459 | 36102 ft | 510 kts | 58° |
| 2026-05-07 07:16 | 43.10682 | -60.34982 | 36102 ft | 509 kts | 58° |
| 2026-05-07 07:16 | 43.14148 | -60.26519 | 36108 ft | 509 kts | 58° |
| 2026-05-07 07:17 | 43.17630 | -60.18089 | 36107 ft | 508 kts | 58° |
| 2026-05-07 07:17 | 43.21103 | -60.09745 | 36112 ft | 507 kts | 58° |
| 2026-05-07 07:18 | 43.24625 | -60.01356 | 36111 ft | 507 kts | 58° |
| 2026-05-07 07:18 | 43.28169 | -59.92985 | 36113 ft | 507 kts | 58° |
| 2026-05-07 07:19 | 43.31735 | -59.84634 | 36115 ft | 507 kts | 57° |
| 2026-05-07 07:19 | 43.35322 | -59.76303 | 36115 ft | 507 kts | 57° |
| 2026-05-07 07:20 | 43.38921 | -59.68008 | 36131 ft | 503 kts | 57° |
| 2026-05-07 07:20 | 43.42529 | -59.59763 | 36126 ft | 503 kts | 57° |
| 2026-05-07 07:21 | 43.46157 | -59.51536 | 36132 ft | 503 kts | 57° |
| 2026-05-07 07:21 | 43.49808 | -59.43324 | 36126 ft | 503 kts | 57° |
| 2026-05-07 07:22 | 43.53482 | -59.35127 | 36131 ft | 502 kts | 57° |
| 2026-05-07 07:22 | 43.57171 | -59.26965 | 36129 ft | 502 kts | 57° |
| 2026-05-07 07:23 | 43.60882 | -59.18817 | 36129 ft | 501 kts | 56° |
| 2026-05-07 07:23 | 43.64614 | -59.10689 | 36133 ft | 501 kts | 56° |
| 2026-05-07 07:24 | 43.68366 | -59.02582 | 36139 ft | 501 kts | 56° |
| 2026-05-07 07:24 | 43.72138 | -58.94495 | 36144 ft | 500 kts | 56° |
| 2026-05-07 07:25 | 43.77193 | -58.83755 | 36155 ft | 500 kts | 56° |
| 2026-05-07 07:26 | 43.81015 | -58.75708 | 36144 ft | 500 kts | 56° |
| 2026-05-07 07:26 | 43.84857 | -58.67681 | 36147 ft | 500 kts | 55° |
| 2026-05-07 07:27 | 43.88721 | -58.59671 | 36152 ft | 500 kts | 55° |
| 2026-05-07 07:27 | 43.92608 | -58.51674 | 36152 ft | 500 kts | 55° |
| 2026-05-07 07:28 | 43.96516 | -58.43692 | 36155 ft | 500 kts | 54° |
| 2026-05-07 07:28 | 44.00446 | -58.35728 | 36155 ft | 500 kts | 54° |
| 2026-05-07 07:29 | 44.04400 | -58.27774 | 36165 ft | 500 kts | 54° |
| 2026-05-07 07:29 | 44.08375 | -58.19838 | 36163 ft | 500 kts | 54° |
| 2026-05-07 07:30 | 44.12374 | -58.11913 | 36166 ft | 500 kts | 54° |
| 2026-05-07 07:30 | 44.16396 | -58.04002 | 36171 ft | 500 kts | 53° |
| 2026-05-07 07:31 | 44.20438 | -57.96108 | 36171 ft | 500 kts | 53° |
| 2026-05-07 07:31 | 44.24474 | -57.88283 | 36171 ft | 500 kts | 53° |
| 2026-05-07 07:32 | 44.28560 | -57.80420 | 36172 ft | 500 kts | 53° |
| 2026-05-07 07:32 | 44.32665 | -57.72577 | 36163 ft | 500 kts | 53° |
| 2026-05-07 07:33 | 44.36779 | -57.64778 | 36181 ft | 497 kts | 52° |
| 2026-05-07 07:33 | 44.40896 | -57.57029 | 36180 ft | 496 kts | 52° |
| 2026-05-07 07:34 | 44.45028 | -57.49307 | 36186 ft | 496 kts | 51° |
| 2026-05-07 07:34 | 44.49179 | -57.41602 | 36189 ft | 495 kts | 51° |
| 2026-05-07 07:35 | 44.53348 | -57.33918 | 36191 ft | 495 kts | 51° |
| 2026-05-07 07:35 | 44.57538 | -57.26250 | 36189 ft | 495 kts | 51° |
| 2026-05-07 07:36 | 44.61747 | -57.18600 | 36192 ft | 495 kts | 51° |
| 2026-05-07 07:36 | 44.65981 | -57.10960 | 36200 ft | 496 kts | 51° |
| 2026-05-07 07:37 | 44.70233 | -57.03338 | 36201 ft | 496 kts | 50° |
| 2026-05-07 07:37 | 44.74508 | -56.95729 | 36202 ft | 495 kts | 50° |
| 2026-05-07 07:38 | 44.78792 | -56.88156 | 36208 ft | 495 kts | 50° |
| 2026-05-07 07:38 | 44.83097 | -56.80597 | 36205 ft | 495 kts | 50° |
| 2026-05-07 07:39 | 44.87420 | -56.73058 | 36211 ft | 494 kts | 50° |
| 2026-05-07 07:39 | 44.91758 | -56.65546 | 36209 ft | 493 kts | 49° |
| 2026-05-07 07:40 | 44.96108 | -56.58061 | 36215 ft | 493 kts | 49° |
| 2026-05-07 07:40 | 45.00477 | -56.50597 | 36211 ft | 493 kts | 49° |
| 2026-05-07 07:41 | 45.04863 | -56.43152 | 36216 ft | 492 kts | 49° |
| 2026-05-07 07:41 | 45.09258 | -56.35742 | 36226 ft | 491 kts | 49° |
| 2026-05-07 07:42 | 45.13673 | -56.28351 | 36220 ft | 491 kts | 48° |
| 2026-05-07 07:42 | 45.18101 | -56.20986 | 36221 ft | 491 kts | 48° |
| 2026-05-07 07:43 | 45.22543 | -56.13646 | 36223 ft | 490 kts | 48° |
| 2026-05-07 07:43 | 45.26999 | -56.06332 | 36224 ft | 490 kts | 47° |
| 2026-05-07 07:44 | 45.31474 | -55.99039 | 36234 ft | 490 kts | 47° |
| 2026-05-07 07:44 | 45.35963 | -55.91770 | 36224 ft | 488 kts | 47° |
| 2026-05-07 07:45 | 45.40437 | -55.84573 | 36225 ft | 484 kts | 46° |
| 2026-05-07 07:45 | 45.44915 | -55.77418 | 36226 ft | 484 kts | 46° |
| 2026-05-07 07:46 | 45.49410 | -55.70284 | 36229 ft | 483 kts | 46° |
| 2026-05-07 07:46 | 45.53916 | -55.63180 | 36230 ft | 483 kts | 46° |
| 2026-05-07 07:47 | 45.58436 | -55.56100 | 36230 ft | 483 kts | 45° |
| 2026-05-07 07:47 | 45.62978 | -55.49034 | 36239 ft | 483 kts | 45° |
| 2026-05-07 07:48 | 45.67535 | -55.41992 | 36231 ft | 483 kts | 45° |
| 2026-05-07 07:48 | 45.72081 | -55.35012 | 36234 ft | 483 kts | 45° |
| 2026-05-07 07:49 | 45.76677 | -55.28004 | 36232 ft | 483 kts | 45° |
| 2026-05-07 07:49 | 45.81280 | -55.21029 | 36235 ft | 481 kts | 44° |
| 2026-05-07 07:50 | 45.85891 | -55.14089 | 36236 ft | 480 kts | 44° |
| 2026-05-07 07:50 | 45.90519 | -55.07169 | 36241 ft | 480 kts | 44° |
| 2026-05-07 07:51 | 45.95162 | -55.00271 | 36253 ft | 480 kts | 44° |
| 2026-05-07 07:51 | 45.99822 | -54.93395 | 36240 ft | 480 kts | 43° |
| 2026-05-07 07:52 | 46.04500 | -54.86538 | 36249 ft | 480 kts | 43° |
| 2026-05-07 07:52 | 46.09193 | -54.79702 | 36260 ft | 480 kts | 43° |
| 2026-05-07 07:53 | 46.13903 | -54.72888 | 36246 ft | 480 kts | 43° |
| 2026-05-07 07:53 | 46.18635 | -54.66088 | 36245 ft | 480 kts | 43° |
| 2026-05-07 07:54 | 46.23382 | -54.59310 | 36252 ft | 480 kts | 42° |
| 2026-05-07 07:54 | 46.28147 | -54.52553 | 36249 ft | 479 kts | 42° |
| 2026-05-07 07:55 | 46.32919 | -54.45831 | 36249 ft | 479 kts | 42° |
| 2026-05-07 07:55 | 46.37713 | -54.39122 | 36254 ft | 479 kts | 42° |
| 2026-05-07 07:56 | 46.42519 | -54.32440 | 36259 ft | 479 kts | 42° |
| 2026-05-07 07:56 | 46.47337 | -54.25786 | 36258 ft | 478 kts | 41° |
| 2026-05-07 07:57 | 46.52165 | -54.19162 | 36261 ft | 478 kts | 41° |
| 2026-05-07 07:57 | 46.57010 | -54.12558 | 36263 ft | 478 kts | 41° |
| 2026-05-07 07:58 | 46.61869 | -54.05979 | 36268 ft | 477 kts | 41° |
| 2026-05-07 07:58 | 46.66739 | -53.99429 | 36265 ft | 476 kts | 41° |
| 2026-05-07 07:59 | 46.71588 | -53.92949 | 36266 ft | 476 kts | 40° |
| 2026-05-07 07:59 | 46.76486 | -53.86447 | 36268 ft | 476 kts | 40° |
| 2026-05-07 08:00 | 46.81388 | -53.79981 | 36267 ft | 474 kts | 40° |
| 2026-05-07 08:00 | 46.86302 | -53.73543 | 36275 ft | 474 kts | 40° |
| 2026-05-07 08:01 | 46.91227 | -53.67131 | 36277 ft | 474 kts | 40° |
| 2026-05-07 08:01 | 46.96167 | -53.60743 | 36276 ft | 474 kts | 40° |
| 2026-05-07 08:02 | 47.01119 | -53.54379 | 36273 ft | 473 kts | 40° |
| 2026-05-07 08:02 | 47.06084 | -53.48040 | 36274 ft | 473 kts | 39° |
| 2026-05-07 08:03 | 47.11066 | -53.41721 | 36278 ft | 473 kts | 39° |
| 2026-05-07 08:03 | 47.16057 | -53.35430 | 36276 ft | 473 kts | 39° |
| 2026-05-07 08:04 | 47.21066 | -53.29157 | 36274 ft | 473 kts | 39° |
| 2026-05-07 08:04 | 47.26108 | -53.22890 | 36268 ft | 476 kts | 38° |
| 2026-05-07 08:05 | 47.31185 | -53.16621 | 36268 ft | 476 kts | 38° |
| 2026-05-07 08:05 | 47.36274 | -53.10377 | 36268 ft | 476 kts | 38° |
| 2026-05-07 08:06 | 47.41385 | -53.04149 | 36262 ft | 476 kts | 38° |
| 2026-05-07 08:06 | 47.46507 | -52.97946 | 36262 ft | 476 kts | 37° |
| 2026-05-07 08:07 | 47.51608 | -52.91808 | 36258 ft | 476 kts | 37° |
| 2026-05-07 08:07 | 47.56792 | -52.85611 | 36256 ft | 476 kts | 37° |
| 2026-05-07 08:08 | 47.61954 | -52.79480 | 36257 ft | 476 kts | 37° |
| 2026-05-07 08:08 | 47.67130 | -52.73373 | 36258 ft | 475 kts | 37° |
| 2026-05-07 08:09 | 47.72278 | -52.67337 | 36257 ft | 475 kts | 36° |
| 2026-05-07 08:09 | 47.77479 | -52.61280 | 36253 ft | 475 kts | 36° |
| 2026-05-07 08:10 | 47.82690 | -52.55252 | 36251 ft | 474 kts | 36° |
| 2026-05-07 08:10 | 47.87910 | -52.49252 | 36251 ft | 474 kts | 36° |
| 2026-05-07 08:11 | 47.93148 | -52.43272 | 36248 ft | 474 kts | 35° |
| 2026-05-07 08:11 | 47.98399 | -52.37316 | 36254 ft | 474 kts | 35° |
| 2026-05-07 08:12 | 48.03659 | -52.31389 | 36248 ft | 473 kts | 35° |
| 2026-05-07 08:12 | 48.08037 | -52.26486 | 36247 ft | 473 kts | 34° |
| 2026-05-07 08:13 | 48.13318 | -52.20607 | 36243 ft | 473 kts | 34° |
| 2026-05-07 08:13 | 48.18614 | -52.14751 | 36251 ft | 473 kts | 34° |
| 2026-05-07 08:14 | 48.23905 | -52.08938 | 36240 ft | 471 kts | 34° |
| 2026-05-07 08:14 | 48.29207 | -52.03150 | 36237 ft | 471 kts | 34° |
| 2026-05-07 08:15 | 48.34514 | -51.97395 | 36243 ft | 471 kts | 33° |
| 2026-05-07 08:15 | 48.39840 | -51.91659 | 36243 ft | 471 kts | 33° |
| 2026-05-07 08:16 | 48.45176 | -51.85950 | 36242 ft | 471 kts | 33° |
| 2026-05-07 08:16 | 48.50525 | -51.80265 | 36241 ft | 471 kts | 33° |
| 2026-05-07 08:17 | 48.55889 | -51.74603 | 36250 ft | 471 kts | 32° |
| 2026-05-07 08:17 | 48.61292 | -51.68942 | 36236 ft | 474 kts | 32° |
| 2026-05-07 08:18 | 48.66694 | -51.63321 | 36231 ft | 475 kts | 32° |
| 2026-05-07 08:18 | 48.72180 | -51.57653 | 36233 ft | 475 kts | 32° |
| 2026-05-07 08:19 | 48.77651 | -51.52039 | 36231 ft | 474 kts | 31° |
| 2026-05-07 08:19 | 48.83086 | -51.46498 | 36230 ft | 474 kts | 31° |
| 2026-05-07 08:20 | 48.88603 | -51.40911 | 36231 ft | 474 kts | 31° |
| 2026-05-07 08:20 | 48.94099 | -51.35385 | 36230 ft | 474 kts | 31° |
| 2026-05-07 08:21 | 48.99569 | -51.29922 | 36225 ft | 473 kts | 31° |
| 2026-05-07 08:21 | 49.05084 | -51.24450 | 36219 ft | 473 kts | 30° |
| 2026-05-07 08:22 | 49.10611 | -51.19005 | 36221 ft | 473 kts | 30° |
| 2026-05-07 08:22 | 49.16149 | -51.13585 | 36225 ft | 473 kts | 30° |
| 2026-05-07 08:23 | 49.21697 | -51.08193 | 36219 ft | 473 kts | 30° |
| 2026-05-07 08:23 | 49.27262 | -51.02823 | 36219 ft | 473 kts | 30° |
| 2026-05-07 08:24 | 49.32839 | -50.97477 | 36215 ft | 473 kts | 29° |
| 2026-05-07 08:24 | 49.38426 | -50.92160 | 36211 ft | 472 kts | 29° |
| 2026-05-07 08:25 | 49.44015 | -50.86876 | 36211 ft | 472 kts | 29° |
| 2026-05-07 08:25 | 49.49618 | -50.81616 | 36211 ft | 472 kts | 28° |
| 2026-05-07 08:26 | 49.58037 | -50.73782 | 36211 ft | 471 kts | 28° |
| 2026-05-07 08:26 | 49.63659 | -50.68595 | 36202 ft | 470 kts | 28° |
| 2026-05-07 08:27 | 49.69242 | -50.63479 | 36197 ft | 470 kts | 28° |
| 2026-05-07 08:27 | 49.74878 | -50.58350 | 36197 ft | 470 kts | 27° |
| 2026-05-07 08:28 | 49.80526 | -50.53246 | 36198 ft | 469 kts | 27° |
| 2026-05-07 08:28 | 49.86166 | -50.48184 | 36192 ft | 468 kts | 27° |
| 2026-05-07 08:29 | 49.91816 | -50.43147 | 36193 ft | 468 kts | 27° |
| 2026-05-07 08:29 | 49.97476 | -50.38137 | 36192 ft | 468 kts | 27° |
| 2026-05-07 08:30 | 50.03145 | -50.33153 | 36192 ft | 467 kts | 26° |
| 2026-05-07 08:30 | 50.08813 | -50.28204 | 36192 ft | 467 kts | 26° |
| 2026-05-07 08:31 | 50.14489 | -50.23283 | 36191 ft | 467 kts | 26° |
| 2026-05-07 08:31 | 50.20177 | -50.18387 | 36202 ft | 467 kts | 26° |
| 2026-05-07 08:32 | 50.25887 | -50.13508 | 36184 ft | 469 kts | 25° |
| 2026-05-07 08:32 | 50.31625 | -50.08644 | 36184 ft | 469 kts | 25° |
| 2026-05-07 08:33 | 50.37376 | -50.03804 | 36184 ft | 469 kts | 25° |
| 2026-05-07 08:33 | 50.43139 | -49.98990 | 36188 ft | 469 kts | 25° |
| 2026-05-07 08:34 | 50.48862 | -49.94242 | 36184 ft | 468 kts | 25° |
| 2026-05-07 08:34 | 50.54668 | -49.89461 | 36175 ft | 468 kts | 24° |
| 2026-05-07 08:35 | 50.60447 | -49.84736 | 36175 ft | 468 kts | 24° |
| 2026-05-07 08:35 | 50.66192 | -49.80074 | 36180 ft | 467 kts | 24° |
| 2026-05-07 08:36 | 50.71975 | -49.75414 | 36179 ft | 466 kts | 24° |
| 2026-05-07 08:36 | 50.77761 | -49.70786 | 36171 ft | 466 kts | 24° |
| 2026-05-07 08:37 | 50.83559 | -49.66183 | 36170 ft | 466 kts | 23° |
| 2026-05-07 08:37 | 50.89359 | -49.61613 | 36172 ft | 465 kts | 23° |
| 2026-05-07 08:38 | 50.95181 | -49.57061 | 36173 ft | 467 kts | 23° |
| 2026-05-07 08:38 | 51.01023 | -49.52530 | 36174 ft | 467 kts | 22° |
| 2026-05-07 08:39 | 51.06876 | -49.48024 | 36163 ft | 467 kts | 22° |
| 2026-05-07 08:39 | 51.12735 | -49.43549 | 36162 ft | 467 kts | 22° |
| 2026-05-07 08:40 | 51.18591 | -49.39109 | 36167 ft | 466 kts | 22° |
| 2026-05-07 08:40 | 51.24457 | -49.34696 | 36163 ft | 466 kts | 21° |
| 2026-05-07 08:41 | 51.30323 | -49.30317 | 36154 ft | 466 kts | 21° |
| 2026-05-07 08:41 | 51.36203 | -49.25963 | 36155 ft | 466 kts | 21° |
| 2026-05-07 08:42 | 51.42091 | -49.21636 | 36159 ft | 465 kts | 21° |
| 2026-05-07 08:42 | 51.47984 | -49.17340 | 36149 ft | 465 kts | 21° |
| 2026-05-07 08:43 | 51.53893 | -49.13067 | 36155 ft | 466 kts | 20° |
| 2026-05-07 08:43 | 51.59783 | -49.08843 | 36153 ft | 467 kts | 20° |
| 2026-05-07 08:44 | 51.65723 | -49.04618 | 36151 ft | 467 kts | 20° |
| 2026-05-07 08:44 | 51.71675 | -49.00418 | 36151 ft | 467 kts | 20° |
| 2026-05-07 08:45 | 51.77631 | -48.96250 | 36141 ft | 467 kts | 20° |
| 2026-05-07 08:45 | 51.83596 | -48.92111 | 36142 ft | 466 kts | 19° |
| 2026-05-07 08:46 | 51.89566 | -48.88001 | 36144 ft | 466 kts | 19° |
| 2026-05-07 08:46 | 51.95544 | -48.83920 | 36142 ft | 466 kts | 19° |
| 2026-05-07 08:47 | 52.01522 | -48.79873 | 36139 ft | 466 kts | 19° |
| 2026-05-07 08:47 | 52.07516 | -48.75849 | 36137 ft | 466 kts | 18° |
| 2026-05-07 08:48 | 52.13520 | -48.71854 | 36137 ft | 468 kts | 18° |
| 2026-05-07 08:48 | 52.19567 | -48.67871 | 36138 ft | 469 kts | 18° |
| 2026-05-07 08:49 | 52.25632 | -48.63911 | 36135 ft | 469 kts | 18° |
| 2026-05-07 08:49 | 52.31705 | -48.59981 | 36139 ft | 469 kts | 17° |
| 2026-05-07 08:50 | 52.37743 | -48.56107 | 36131 ft | 469 kts | 17° |
| 2026-05-07 08:50 | 52.43833 | -48.52235 | 36136 ft | 469 kts | 17° |
| 2026-05-07 08:51 | 52.49930 | -48.48393 | 36127 ft | 469 kts | 17° |
| 2026-05-07 08:51 | 52.56033 | -48.44581 | 36135 ft | 469 kts | 16° |
| 2026-05-07 08:52 | 52.62138 | -48.40803 | 36121 ft | 469 kts | 16° |
| 2026-05-07 08:52 | 52.68253 | -48.37054 | 36119 ft | 469 kts | 16° |
| 2026-05-07 08:53 | 52.74405 | -48.33321 | 36116 ft | 472 kts | 15° |
| 2026-05-07 08:53 | 52.80581 | -48.29611 | 36128 ft | 472 kts | 15° |
| 2026-05-07 08:54 | 52.86751 | -48.25938 | 36121 ft | 471 kts | 15° |
| 2026-05-07 08:54 | 52.92917 | -48.22301 | 36112 ft | 470 kts | 15° |
| 2026-05-07 08:55 | 52.99094 | -48.18692 | 36117 ft | 470 kts | 15° |
| 2026-05-07 08:55 | 53.05272 | -48.15118 | 36116 ft | 470 kts | 14° |
| 2026-05-07 08:56 | 53.11451 | -48.11576 | 36110 ft | 469 kts | 14° |
| 2026-05-07 08:56 | 53.17620 | -48.08074 | 36113 ft | 468 kts | 14° |
| 2026-05-07 08:57 | 53.23811 | -48.04595 | 36115 ft | 471 kts | 14° |
| 2026-05-07 08:57 | 53.30040 | -48.01135 | 36106 ft | 472 kts | 13° |
| 2026-05-07 08:58 | 53.36279 | -47.97705 | 36105 ft | 471 kts | 13° |
| 2026-05-07 08:58 | 53.42512 | -47.94313 | 36110 ft | 471 kts | 13° |
| 2026-05-07 08:59 | 53.48745 | -47.90956 | 36110 ft | 470 kts | 13° |
| 2026-05-07 08:59 | 53.54939 | -47.87654 | 36102 ft | 470 kts | 13° |
| 2026-05-07 09:00 | 53.61184 | -47.84360 | 36117 ft | 470 kts | 13° |
| 2026-05-07 09:00 | 53.67413 | -47.81105 | 36110 ft | 468 kts | 12° |
| 2026-05-07 09:01 | 53.73636 | -47.77886 | 36105 ft | 469 kts | 12° |
| 2026-05-07 09:01 | 53.79893 | -47.74690 | 36102 ft | 470 kts | 12° |
| 2026-05-07 09:02 | 53.85108 | -47.72055 | 36105 ft | 471 kts | 12° |
| 2026-05-07 09:02 | 53.91386 | -47.68915 | 36102 ft | 470 kts | 12° |